Latest Coastal Weather Observations for Christmas Island

IDW60701

Issued at 5:23 pm WST Tuesday 16 January 2018 (issued every 10 minutes, with the page automatically refreshed every 10 minutes)

About coastal observations | Map of coastal stations | Coastal observations for WA | Marine services | Other Formats
Station Details ID: 200790 Name: CHRISTMAS ISLAND AERO Lat: -10.45 Lon: 105.69 Height: 261.0 m
Data from the previous 72 hours. | See also: Recent months at Christmas Island
Date/Time
WST
Temp
°C
Wind Pressure Rain since
9am
mm
Weather Cloud Vis
km
Sea
Height
m
Swell
Dir  Spd
kts
Gust
kts
hPa Trend Height
m
Period
s
Dir
16/05:00pm 25.8 WNW 9 15 1006.5 - - - Partly cloudy 10 - - - -
16/04:48pm 25.5 W 10 17 1006.6 - - - Partly cloudy 10 - - - -
16/04:30pm 27.0 WNW 8 15 1006.6 - - - Partly cloudy 10 - - - -
16/04:00pm 27.1 W 9 16 1005.1 - - - Cloudy 10 - - - -
16/03:59pm 27.1 W 9 16 1006.7 - - - Partly cloudy 10 - - - -
16/03:30pm 27.1 W 10 21 1006.9 - - - Partly cloudy 10 - - - -
16/03:16pm 27.3 WNW 11 18 1007.2 - - - Partly cloudy 10 - - - -
16/03:00pm 26.9 WNW 11 21 1007.3 - - - Partly cloudy 10 - - - -
16/02:56pm 26.9 WNW 11 21 1007.4 - - - Partly cloudy 10 - - - -
16/02:30pm 27.8 WNW 9 17 1007.6 - - - Partly cloudy 10 - - - -
16/02:24pm 27.1 WNW 10 19 1007.7 - - - Partly cloudy 10 - - - -
16/02:00pm 27.4 W 10 19 1008.1 - - - Partly cloudy 10 - - - -
16/01:30pm 27.4 W 10 16 1008.3 - - - Partly cloudy 10 - - - -
16/01:11pm 27.4 W 9 18 1008.3 - - - Partly cloudy 10 - - - -
16/01:00pm 27.1 W 10 19 1006.8 - - - Cloudy 10 - - - -
16/12:57pm 26.9 WNW 9 15 1008.6 - - - Partly cloudy 10 - - - -
16/12:30pm 26.8 WNW 11 19 1008.7 - - - Partly cloudy 10 - - - -
16/12:20pm 26.5 W 10 17 1008.7 - - - Partly cloudy 10 - - - -
16/12:00pm 26.8 WNW 8 16 1008.8 - - - Partly cloudy 10 - - - -
16/11:57am 27.3 WNW 8 14 1008.8 - - - Partly cloudy 10 - - - -
16/11:30am 27.1 WNW 8 13 1008.8 - - - Partly cloudy 10 - - - -
16/11:15am 26.7 W 8 13 - - - - Partly cloudy 10 - - - -
16/11:00am 26.3 W 9 16 1008.7 - - - Partly cloudy 10 - - - -
16/10:30am 25.7 WNW 8 13 1008.8 - - - Partly cloudy 10 - - - -
16/10:22am 25.9 W 7 12 1008.8 - - - Partly cloudy 10 - - - -
16/10:00am 25.8 W 8 16 1007.1 - - - Cloudy 10 - - - -
16/09:30am 25.7 W 7 13 1008.6 - - - Partly cloudy 10 - - - -
16/09:11am 25.7 W 8 12 1008.4 - - - Partly cloudy 10 - - - -
16/09:00am 26.0 W 6 11 1008.5 - - - Partly cloudy 10 - - - -
16/08:54am 25.9 W 6 12 1008.5 - - - Partly cloudy 10 - - - -
16/08:36am 25.8 W 7 13 1008.4 - - - Partly cloudy 10 - - - -
16/08:33am 25.7 W 7 13 1008.4 - - - Partly cloudy 10 - - - -
16/08:30am 25.6 WNW 8 13 1008.4 - - - Partly cloudy 10 - - - -
16/08:17am 25.5 WNW 7 11 1008.2 - - - Partly cloudy 10 - - - -
16/08:11am 25.3 WNW 8 15 1008.1 - - - Partly cloudy 10 - - - -
16/08:00am 24.9 W 7 11 1008.1 - - - Partly cloudy 10 - - - -
16/07:56am 24.9 W 7 15 1007.9 - - - Partly cloudy 10 - - - -
16/07:31am 24.4 W 7 14 1007.9 - - - Partly cloudy 10 - - - -
16/07:30am 24.4 W 7 14 1007.9 - - - Partly cloudy 10 - - - -
16/07:07am 24.3 WNW 7 12 1007.7 - - - Partly cloudy 10 - - - -
16/07:00am 24.3 WNW 7 12 1006.1 - - - Mostly cloudy 10 - - - -
16/06:55am 24.4 WNW 6 10 1007.6 - - - Partly cloudy 10 - - - -
16/06:30am 24.2 W 8 13 1007.3 - - - Partly cloudy 10 - - - -
16/06:14am 24.2 W 7 13 1007.3 - - - Partly cloudy 10 - - - -
16/06:00am 24.2 W 6 12 1007.3 - - - Partly cloudy 10 - - - -
16/05:58am 24.2 W 6 12 1007.3 - - - Partly cloudy 10 - - - -
16/05:30am 24.2 W 7 13 1007.2 - - - Partly cloudy 10 - - - -
16/05:00am 24.1 WNW 7 12 1007.3 - - - Partly cloudy 10 - - - -
16/04:30am 23.7 W 7 10 1007.4 - - - Partly cloudy 10 - - - -
16/04:00am 23.6 W 6 11 1005.7 - - - Cloudy 10 - - - -
16/03:30am 23.3 W 6 12 1007.5 - - - Partly cloudy 10 - - - -
16/03:00am 23.5 W 6 9 1007.8 - - - Cloudy 10 - - - -
16/02:30am 23.4 W 6 11 1008.2 - - - Partly cloudy 10 - - - -
16/02:00am 23.5 W 7 12 1008.5 - - - Partly cloudy 10 - - - -
16/01:30am 23.4 W 8 13 1009.1 - - - Partly cloudy 10 - - - -
16/01:00am 24.3 W 5 9 1007.5 - - - Partly cloudy 10 - - - -
16/12:30am 24.2 W 5 7 1009.4 - - - Partly cloudy 10 - - - -
16/12:00am 24.1 W 4 7 1009.6 - - - Partly cloudy 10 - - - -
 
Date/Time
WST
Temp
°C
Wind Pressure Rain since
9am
mm
Weather Cloud Vis
km
Sea
Height
m
Swell
Dir  Spd
kts
Gust
kts
hPa Trend Height
m
Period
s
Dir
15/11:30pm 23.8 W 4 8 1009.7 - - - Partly cloudy 10 - - - -
15/11:00pm 23.9 W 5 7 1009.6 - - - - 10 - - - -
15/10:30pm 23.9 W 5 8 1009.4 - - - - 10 - - - -
15/10:00pm 23.8 W 5 8 1007.6 - - - - 10 - - - -
15/09:30pm 23.9 WSW 5 7 1009.3 - - - Partly cloudy 10 - - - -
15/09:00pm 24.0 WSW 5 8 1009.4 - - - - 10 - - - -
15/08:30pm 24.0 WSW 5 7 1009.1 - - - Partly cloudy 10 - - - -
15/08:00pm 24.1 WSW 6 11 1008.8 - - - Partly cloudy 10 - - - -
15/07:30pm 24.2 WSW 6 12 1008.6 - - - Partly cloudy 10 - - - -
15/07:00pm 24.6 WSW 5 10 1006.6 - - - Mostly cloudy 10 - - - -
15/06:30pm 25.2 WSW 6 10 1007.9 - - - Partly cloudy 10 - - - -
15/06:00pm 25.5 W 6 10 1007.5 - - - Partly cloudy 10 - - - -
15/05:30pm 25.4 W 7 11 1007.1 - - - Partly cloudy 10 - - - -
15/05:00pm 24.8 WSW 8 12 1007.1 - - - Partly cloudy 10 - - - -
15/04:45pm 24.6 WSW 9 15 1007.2 - - - Partly cloudy 10 - - - -
15/04:42pm 24.6 WSW 9 15 1007.2 - - - Partly cloudy 10 - - - -
15/04:31pm 24.5 WSW 8 15 1007.4 - - - Partly cloudy 4 - - - -
15/04:30pm 24.4 WSW 9 15 1007.4 - - - Partly cloudy 4 - - - -
15/04:16pm 25.0 W 9 16 1007.7 - - - Partly cloudy 5 - - - -
15/04:00pm 25.5 W 8 13 1006.0 - - - Mostly cloudy 10 - - - -
15/03:37pm 26.0 W 8 13 1007.8 - - - Partly cloudy 10 - - - -
15/03:30pm 25.6 W 8 13 1007.9 - - - Partly cloudy 10 - - - -
15/03:19pm 24.4 W 9 19 1008.3 - - - Partly cloudy 6 - - - -
15/03:00pm 27.1 W 8 15 1008.4 - - - Partly cloudy 10 - - - -
15/02:30pm 27.1 W 10 15 1008.6 - - - Partly cloudy 10 - - - -
15/02:00pm 27.1 W 11 17 1009.0 - - - Partly cloudy 10 - - - -
15/01:30pm 27.8 W 8 13 1009.1 - - - - 10 - - - -
15/01:00pm 26.9 W 8 17 1007.8 - - - Mostly clear 10 - - - -
15/12:30pm 27.2 W 9 14 1009.6 - - - - 10 - - - -
15/12:00pm 26.2 W 9 15 1009.9 - - - Partly cloudy 10 - - - -
15/11:30am 25.2 W 7 12 1010.2 - - - Partly cloudy 10 - - - -
15/11:20am 24.7 W 7 13 1010.4 - - - Partly cloudy 10 - - - -
15/11:16am 24.6 W 7 13 1010.3 - - - Partly cloudy 10 - - - -
15/11:00am 24.3 W 7 13 1010.4 - - - Partly cloudy 5 - - - -
15/10:57am 24.3 WNW 7 13 1010.5 - - - Partly cloudy 6 - - - -
15/10:36am 24.8 WNW 7 11 1010.5 - - - Partly cloudy 10 - - - -
15/10:30am 25.0 W 6 10 1010.5 - - - Partly cloudy 10 - - - -
15/10:00am 24.7 W 6 11 1008.9 - - - Cloudy 10 - - - -
15/09:30am 24.1 W 8 13 1010.5 - - - Partly cloudy 10 - - - -
15/09:00am 22.9 W 6 11 1010.6 - - - Partly cloudy 10 - - - -
15/08:30am 22.5 WSW 8 13 1010.6 - - - Partly cloudy 10 - - - -
15/08:22am 22.5 W 8 15 1010.5 - - - Partly cloudy 10 - - - -
15/08:07am 22.5 W 7 14 1010.3 - - - Partly cloudy 6 - - - -
15/08:00am 22.5 W 7 13 1010.3 - - - Partly cloudy 8 - - - -
15/07:56am 22.5 W 8 16 1010.3 - - - Partly cloudy 9 - - - -
15/07:48am 22.5 W 8 16 1010.3 - - - Partly cloudy 8 - - - -
15/07:30am 22.5 W 10 18 1010.1 - - - Partly cloudy 5 - - - -
15/07:00am 22.5 WSW 9 17 1008.4 - - - Cloudy 4 - - - -
15/06:52am 22.6 WSW 11 20 1010.0 - - - Partly cloudy 3 - - - -
15/06:49am 22.7 WSW 10 20 1010.0 - - - Partly cloudy 3 - - - -
15/06:38am 22.9 SW 8 13 1009.8 - - - Partly cloudy 6 - - - -
15/06:30am 23.2 SW 8 16 1009.6 - - - Partly cloudy 6 - - - -
15/06:25am 23.5 SW 7 16 1009.5 - - - Partly cloudy 10 - - - -
15/06:24am 23.7 SW 6 13 1009.6 - - - Partly cloudy 10 - - - -
15/06:09am 23.9 WSW 5 11 1009.3 - - - Partly cloudy 10 - - - -
15/06:00am 23.8 WSW 5 11 1009.0 - - - Partly cloudy 10 - - - -
15/05:35am 23.7 W 7 12 1008.8 - - - Partly cloudy 10 - - - -
15/05:30am 23.7 W 6 12 1008.8 - - - Partly cloudy 10 - - - -
15/05:09am 23.0 W 6 10 1008.5 - - - Partly cloudy 10 - - - -
15/05:04am 22.9 WNW 7 12 1008.6 - - - Partly cloudy 10 - - - -
15/05:00am 22.9 WNW 9 15 1008.6 - - - Partly cloudy 8 - - - -
15/04:50am 23.4 W 10 23 1008.7 - - - Partly cloudy 6 - - - -
15/04:30am 24.2 WNW 6 10 1008.7 - - - Partly cloudy 10 - - - -
15/04:21am 24.6 W 6 14 1008.7 - - - Partly cloudy 10 - - - -
15/04:01am 24.8 W 5 9 1008.8 - - - Partly cloudy 10 - - - -
15/04:00am 24.8 W 6 9 1007.1 - - - Cloudy 10 - - - -
15/03:30am 24.7 W 6 9 1009.0 - - - Partly cloudy 10 - - - -
15/03:22am 24.8 W 6 10 1009.0 - - - Partly cloudy 10 - - - -
15/03:00am 24.7 W 7 11 1009.1 - - - Partly cloudy 10 - - - -
15/02:32am 24.7 W 7 11 1009.3 - - - Partly cloudy 10 - - - -
15/02:30am 24.7 W 7 11 1009.3 - - - Partly cloudy 10 - - - -
15/02:00am 24.8 W 6 11 1009.8 - - - Partly cloudy 10 - - - -
15/01:56am 24.8 W 6 11 1009.8 - - - Partly cloudy 10 - - - -
15/01:30am 24.6 W 6 10 1010.1 - - - Partly cloudy 10 - - - -
15/01:00am 24.6 W 6 9 1008.6 - - - Cloudy 10 - - - -
15/12:30am 24.4 W 5 8 1010.7 - - - Partly cloudy 10 - - - -
15/12:00am 24.2 W 4 7 1011.0 - - - - 10 - - - -
 
Date/Time
WST
Temp
°C
Wind Pressure Rain since
9am
mm
Weather Cloud Vis
km
Sea
Height
m
Swell
Dir  Spd
kts
Gust
kts
hPa Trend Height
m
Period
s
Dir
14/11:30pm 24.3 W 4 6 1011.1 - - - - 10 - - - -
14/11:00pm 24.5 W 4 6 1011.2 - - - Partly cloudy 10 - - - -
14/10:30pm 24.6 WSW 3 7 1011.0 - - - Partly cloudy 10 - - - -
14/10:00pm 24.7 W 4 8 1009.3 - - - Mostly cloudy 10 - - - -
14/09:30pm 24.8 W 4 7 1010.6 - - - Partly cloudy 10 - - - -
14/09:00pm 24.8 W 5 9 1010.4 - - - Partly cloudy 10 - - - -
14/08:30pm 24.8 W 6 12 1010.1 - - - Partly cloudy 10 - - - -
14/08:00pm 24.8 W 7 12 1010.0 - - - Cloudy 10 - - - -
14/07:30pm 24.9 W 7 12 1009.7 - - - Cloudy 10 - - - -
14/07:00pm 25.3 W 8 14 1007.5 - - - - 10 - - - -
14/06:30pm 25.7 W 7 12 1008.8 - - - - 10 - - - -
14/06:00pm 25.8 W 7 16 1008.7 - - - Partly cloudy 10 - - - -
14/05:11pm 24.4 WNW 7 11 1008.5 - - - Partly cloudy 10 - - - -
14/05:00pm 23.8 W 9 14 1008.6 - - - Partly cloudy 5 - - - -
14/04:50pm 24.5 W 8 13 1008.7 - - - Partly cloudy 6 - - - -
14/04:30pm 26.7 W 8 13 1008.6 - - - Partly cloudy 10 - - - -
14/04:00pm 27.4 W 9 17 1006.9 - - - Partly cloudy 10 - - - -
14/03:30pm 27.1 WNW 10 15 1009.0 - - - Partly cloudy 10 - - - -
14/03:00pm 27.6 WNW 10 18 1009.1 - - - Partly cloudy 10 - - - -
14/02:30pm 27.9 WNW 10 18 1009.4 - - - Partly cloudy 10 - - - -
14/02:00pm 28.0 W 9 17 1009.8 - - - Partly cloudy 10 - - - -
14/01:30pm 27.8 W 10 18 1010.0 - - - Partly cloudy 10 - - - -
14/01:00pm 27.0 W 10 21 1008.7 - - - Partly cloudy 10 - - - -
14/12:30pm 27.3 W 10 16 1010.7 - - - Partly cloudy 10 - - - -
14/12:00pm 27.4 WNW 9 15 1010.8 - - - Partly cloudy 10 - - - -
14/11:30am 27.3 W 10 18 1010.5 - - - Partly cloudy 10 - - - -
14/11:00am 27.5 W 9 16 1010.7 - - - Partly cloudy 10 - - - -
14/10:30am 26.7 W 10 18 1010.8 - - - Partly cloudy 10 - - - -
14/10:00am 27.0 W 8 14 1009.4 - - - Mostly clear 10 - - - -
14/09:30am 26.9 W 8 13 1011.1 - - - Partly cloudy 10 - - - -
14/09:00am 26.3 W 7 15 1010.9 - - - Partly cloudy 10 - - - -
14/08:30am 25.8 W 8 15 1010.6 - - - Partly cloudy 10 - - - -
14/08:00am 25.8 W 8 14 1010.4 - - - Partly cloudy 10 - - - -
14/07:30am 24.8 W 7 11 1010.2 - - - Partly cloudy 10 - - - -
14/07:00am 24.5 W 8 13 1008.2 - - - Mostly clear 10 - - - -
14/06:30am 24.6 W 8 15 1009.3 - - - Partly cloudy 10 - - - -
14/06:00am 24.6 W 9 16 1009.0 - - - Partly cloudy 10 - - - -
14/05:30am 24.6 W 8 14 1008.9 - - - Partly cloudy 10 - - - -
14/05:01am 24.7 W 7 16 1009.0 - - - Partly cloudy 10 - - - -
14/05:00am 24.7 W 7 15 1009.0 - - - Partly cloudy 10 - - - -
14/04:47am 24.7 W 8 15 1009.1 - - - Partly cloudy 10 - - - -
14/04:30am 24.7 W 9 16 1009.1 - - - Partly cloudy 10 - - - -
14/04:22am 24.6 W 8 16 1009.2 - - - Partly cloudy 10 - - - -
14/04:08am 24.7 W 7 13 1009.2 - - - Partly cloudy 10 - - - -
14/04:00am 24.7 W 8 15 1007.6 - - - Cloudy 10 - - - -
14/03:45am 24.7 W 7 11 1009.3 - - - Partly cloudy 10 - - - -
14/03:33am 24.7 W 9 16 1009.4 - - - Partly cloudy 10 - - - -
14/03:30am 24.7 W 9 16 1009.4 - - - Partly cloudy 10 - - - -
14/03:00am 24.5 W 7 13 1009.3 - - - Partly cloudy 10 - - - -
14/02:30am 24.4 W 7 12 1009.2 - - - Partly cloudy 10 - - - -
14/02:00am 24.6 W 8 14 1009.4 - - - Partly cloudy 10 - - - -
14/01:30am 24.8 W 9 15 1009.5 - - - Partly cloudy 10 - - - -
14/01:00am 24.8 W 9 17 1008.2 - - - Cloudy 10 - - - -
14/12:32am 24.9 W 10 20 1010.1 - - - Partly cloudy 10 - - - -
14/12:30am 24.8 W 10 20 1010.1 - - - Partly cloudy 10 - - - -
14/12:16am 24.8 W 8 16 1010.2 - - - Partly cloudy 10 - - - -
14/12:00am 24.8 W 8 16 1010.3 - - - Partly cloudy 10 - - - -
 
Date/Time
WST
Temp
°C
Wind Pressure Rain since
9am
mm
Weather Cloud Vis
km
Sea
Height
m
Swell
Dir  Spd
kts
Gust
kts
hPa Trend Height
m
Period
s
Dir
13/11:57pm 24.8 W 8 16 1010.3 - - - Partly cloudy 10 - - - -
13/11:38pm 24.8 W 7 15 1010.3 - - - Partly cloudy 10 - - - -
13/11:30pm 24.8 W 9 16 1010.2 - - - Partly cloudy 10 - - - -
13/11:16pm 24.7 W 9 16 1010.2 - - - Partly cloudy 10 - - - -
13/11:00pm 24.7 W 8 14 1010.2 - - - Partly cloudy 10 - - - -
13/10:53pm 24.6 W 8 15 1010.3 - - - Partly cloudy 10 - - - -
13/10:47pm 24.6 W 8 15 1010.3 - - - Partly cloudy 10 - - - -
13/10:30pm 24.5 W 8 16 1010.3 - - - Partly cloudy 10 - - - -
13/10:00pm 24.4 W 8 14 1008.5 - - - Mostly clear 10 - - - -
13/09:55pm 24.4 W 7 11 1010.1 - - - Partly cloudy 10 - - - -
13/09:32pm 24.4 W 8 13 1010.0 - - - Partly cloudy 10 - - - -
13/09:30pm 24.4 W 8 13 1010.0 - - - Partly cloudy 10 - - - -
13/09:11pm 24.3 W 8 14 1009.9 - - - Partly cloudy 10 - - - -
13/09:00pm 24.4 W 9 16 1009.6 - - - Partly cloudy 10 - - - -
13/08:56pm - W 9 16 - - - - - - - - - -
13/08:30pm 24.6 W 11 17 1009.3 - - - Partly cloudy 10 - - - -
13/08:09pm 24.5 W 10 17 1008.8 - - - Partly cloudy 10 - - - -
13/08:00pm 24.4 W 10 17 1008.6 - - - Partly cloudy 10 - - - -
13/07:55pm 24.4 W 10 17 1008.5 - - - Partly cloudy 10 - - - -
13/07:30pm 24.3 W 10 16 1008.3 - - - Partly cloudy 10 - - - -
13/07:01pm 24.2 W 11 18 1007.7 - - - Partly cloudy 10 - - - -
13/07:00pm 24.2 W 11 18 1006.1 - - - Partly cloudy 10 - - - -
13/06:30pm 24.2 W 12 25 1007.2 - - - Partly cloudy 10 - - - -
13/06:22pm 24.1 W 12 22 1007.0 - - - Partly cloudy 10 - - - -

Other Formats:

Comma delimited format used in spreadsheet applications
http://www.bom.gov.au/fwo/IDW60701/IDW60701.96995.axf

JavaScript Object Notation format (JSON) in row-major order
http://www.bom.gov.au/fwo/IDW60701/IDW60701.96995.json